createdAt,value
2022-12-23T00:12:51.474Z,6.88
2022-12-23T00:32:51.471Z,6.71
2022-12-23T00:52:51.485Z,6.42
2022-12-23T01:12:51.494Z,6.45
2022-12-23T01:32:51.501Z,6.51
2022-12-23T01:52:51.445Z,6.65
2022-12-23T02:12:51.417Z,6.85
2022-12-23T02:32:51.434Z,6.97
2022-12-23T02:52:51.433Z,7.02
2022-12-23T03:12:51.444Z,7.54
2022-12-23T03:32:51.447Z,7.99
2022-12-23T03:52:51.353Z,8.04
2022-12-23T04:12:51.442Z,8.23
2022-12-23T04:32:51.348Z,8.19
2022-12-23T04:52:51.367Z,8.01
2022-12-23T05:12:51.368Z,8.07
2022-12-23T05:32:51.486Z,8.12
2022-12-23T05:52:51.296Z,8.14
2022-12-23T06:12:51.304Z,8.21
2022-12-23T06:32:51.384Z,8.31
2022-12-23T06:52:51.453Z,8.22
2022-12-23T07:12:51.393Z,8.18
2022-12-23T07:32:51.262Z,8.05
2022-12-23T07:52:51.308Z,7.46
2022-12-23T08:12:51.297Z,7.54
2022-12-23T08:32:51.410Z,7.91
2022-12-23T08:52:51.221Z,8.27
2022-12-23T09:12:51.388Z,8.40
2022-12-23T09:32:51.256Z,8.43
2022-12-23T09:52:51.269Z,8.73
2022-12-23T10:12:51.211Z,8.71
2022-12-23T10:32:51.329Z,8.86
2022-12-23T10:52:51.410Z,8.73
2022-12-23T11:12:51.139Z,9.16
2022-12-23T11:32:51.301Z,9.09
2022-12-23T11:52:51.377Z,8.43
2022-12-23T12:12:51.372Z,8.39
2022-12-23T12:32:51.358Z,9.18
2022-12-23T12:52:51.346Z,9.45
2022-12-23T13:12:51.275Z,9.62
2022-12-23T13:32:51.233Z,9.38
2022-12-23T13:52:51.206Z,9.12
2022-12-23T14:12:51.254Z,9.08
2022-12-23T14:32:51.306Z,9.04
2022-12-23T14:52:51.034Z,9.03
2022-12-23T15:12:51.218Z,8.89
2022-12-23T15:32:51.220Z,8.90
2022-12-23T15:52:51.161Z,8.82
2022-12-23T16:12:51.159Z,8.74
2022-12-23T16:32:51.200Z,8.86
2022-12-23T16:52:51.224Z,8.90
2022-12-23T17:12:51.102Z,9.14
2022-12-23T17:32:51.167Z,9.44
2022-12-23T17:52:51.159Z,9.66
2022-12-23T18:12:50.886Z,9.68
2022-12-23T18:32:50.901Z,9.45
2022-12-23T18:52:50.909Z,9.34
2022-12-23T19:12:50.985Z,9.36
2022-12-23T19:32:50.926Z,9.36
2022-12-23T19:52:51.018Z,9.43
2022-12-23T20:12:50.981Z,9.88
2022-12-23T20:32:50.872Z,9.90
2022-12-23T20:52:50.966Z,10.01
2022-12-23T21:12:50.790Z,9.26
2022-12-23T21:32:50.807Z,8.87
2022-12-23T21:52:50.814Z,8.58
2022-12-23T22:12:50.881Z,8.40
2022-12-23T22:32:50.727Z,8.36
2022-12-23T22:52:50.859Z,8.83
2022-12-23T23:12:50.769Z,8.74
2022-12-23T23:32:50.764Z,8.74
2022-12-23T23:52:50.771Z,8.93
